Time;durP1;ratioP1;P1;durP2;ratioP2;P2;SDS_P1;SDS_P2;PMS_P1;PMS_P2;Temp;Humidity;BMP_temperature;BMP_pressure;BME280_temperature;BME280_humidity;BME280_pressure;Samples;Min_cycle;Max_cycle;Signal;HPM_P1;HPM_P2
2022/03/30 00:10:28;;;;;;;7.10;2.73;;;;;;;5.60;61.17;99309.23;738823;1155;115049;-71
2022/03/30 00:25:30;;;;;;;3.93;2.00;;;;;;;5.41;60.89;99304.71;738874;1155;114247;-71
2022/03/30 00:40:32;;;;;;;41.28;13.98;;;;;;;5.27;60.72;99292.85;738960;1155;114926;-72
2022/03/30 00:55:34;;;;;;;32.85;11.28;;;;;;;5.13;60.30;99281.80;739113;1155;115583;-72
2022/03/30 01:10:36;;;;;;;19.63;7.57;;;;;;;4.99;60.19;99275.11;739202;1154;115263;-71
2022/03/30 01:25:38;;;;;;;14.80;6.60;;;;;;;4.89;61.24;99269.00;738783;1155;115173;-71
2022/03/30 01:40:41;;;;;;;25.35;8.73;;;;;;;4.67;60.21;99259.49;738636;1155;115339;-71
2022/03/30 01:55:43;;;;;;;16.13;6.75;;;;;;;4.37;60.98;99253.20;738686;1155;115017;-71
2022/03/30 02:10:45;;;;;;;23.15;6.78;;;;;;;4.24;62.12;99242.95;738818;1155;115242;-72
2022/03/30 02:25:48;;;;;;;41.18;12.63;;;;;;;4.16;62.23;99240.13;738787;1155;114050;-72
2022/03/30 02:40:50;;;;;;;26.10;8.87;;;;;;;3.91;61.38;99230.83;738796;1153;115403;-72
2022/03/30 02:55:52;;;;;;;139.60;31.83;;;;;;;3.80;62.19;99216.91;738850;1154;113713;-72
2022/03/30 03:10:54;;;;;;;21.95;7.83;;;;;;;3.59;62.48;99226.31;738640;1155;115660;-72
2022/03/30 03:25:56;;;;;;;18.15;7.50;;;;;;;3.16;62.39;99228.58;739053;1155;114912;-71
2022/03/30 03:40:59;;;;;;;11.85;6.08;;;;;;;2.95;63.43;99217.22;738673;1154;114250;-71
2022/03/30 03:56:05;;;;;;;23.40;8.33;;;;;;;2.72;63.74;99218.88;739904;1155;114959;-71
2022/03/30 04:11:07;;;;;;;364.30;82.30;;;;;;;2.76;64.26;99210.80;739299;1155;115400;-71
2022/03/30 04:26:10;;;;;;;326.83;67.88;;;;;;;2.73;64.00;99223.13;739695;1155;114130;-72
2022/03/30 04:41:12;;;;;;;255.53;58.90;;;;;;;2.75;65.01;99229.05;740054;1155;114059;-79
2022/03/30 04:56:14;;;;;;;137.20;36.57;;;;;;;2.89;64.69;99233.20;739076;1155;115460;-78
2022/03/30 05:11:16;;;;;;;96.97;34.13;;;;;;;3.06;65.16;99225.05;739375;1155;114654;-79
2022/03/30 05:26:18;;;;;;;79.43;29.08;;;;;;;3.30;65.26;99234.54;738778;1155;115199;-75
2022/03/30 05:41:21;;;;;;;118.58;44.35;;;;;;;3.67;66.03;99244.73;738812;1155;115518;-71
2022/03/30 05:57:00;;;;;;;184.87;70.90;;;;;;;4.12;66.22;99234.34;738834;1154;115720;-71
2022/03/30 06:11:46;;;;;;;129.98;50.48;;;;;;;4.70;65.80;99238.48;738919;1155;114267;-79
2022/03/30 06:26:48;;;;;;;63.90;27.43;;;;;;;5.22;65.01;99230.80;739015;1155;115712;-76
2022/03/30 06:41:51;;;;;;;44.38;22.13;;;;;;;5.78;64.08;99231.39;739534;1155;115200;-77
2022/03/30 06:56:53;;;;;;;25.33;13.80;;;;;;;6.41;63.82;99257.27;739806;1155;115227;-74
2022/03/30 07:11:55;;;;;;;21.25;11.53;;;;;;;7.32;64.12;99257.06;739080;1155;114133;-78
2022/03/30 07:26:57;;;;;;;19.18;7.93;;;;;;;8.16;64.07;99260.65;739314;1155;115109;-74
2022/03/30 07:41:59;;;;;;;10.63;7.00;;;;;;;8.92;63.61;99276.19;739498;1154;113697;-73
2022/03/30 07:57:02;;;;;;;11.53;6.00;;;;;;;9.13;61.58;99274.11;743055;1155;114094;-73
2022/03/30 08:12:04;;;;;;;14.33;4.83;;;;;;;9.57;61.93;99291.63;742993;1155;113851;-73
2022/03/30 08:27:08;;;;;;;14.30;5.53;;;;;;;9.46;59.84;99308.41;740596;1155;115307;-73
2022/03/30 08:42:17;;;;;;;19.63;7.08;;;;;;;10.05;59.05;99304.36;739207;1155;114711;-73
2022/03/30 08:57:20;;;;;;;46.63;17.03;;;;;;;10.25;58.50;99310.19;739585;1155;114708;-73
2022/03/30 09:12:26;;;;;;;21.45;6.45;;;;;;;11.30;56.64;99313.26;739088;1155;114969;-72
2022/03/30 09:27:32;;;;;;;17.60;7.23;;;;;;;10.70;55.92;99313.49;738735;1155;114117;-78
2022/03/30 09:42:34;;;;;;;17.60;6.98;;;;;;;10.47;55.14;99325.38;740115;1155;113941;-79
2022/03/30 09:57:41;;;;;;;11.33;6.65;;;;;;;9.60;55.39;99327.97;739600;1154;115632;-79
2022/03/30 10:12:44;;;;;;;10.80;5.45;;;;;;;10.45;55.16;99337.84;747150;1155;115270;-79
2022/03/30 10:28:13;;;;;;;10.40;5.53;;;;;;;10.23;55.09;99343.61;739984;1155;115461;-79
2022/03/30 10:43:25;;;;;;;10.17;4.43;;;;;;;10.04;54.77;99339.39;739574;1155;115424;-74
2022/03/30 10:58:32;;;;;;;15.87;9.50;;;;;;;9.02;54.91;99376.36;739026;1155;114531;-78
2022/03/30 11:13:34;;;;;;;15.43;7.57;;;;;;;9.18;55.46;99391.40;739648;1155;115291;-75
2022/03/30 11:28:40;;;;;;;16.58;8.18;;;;;;;9.24;55.11;99405.70;739249;1154;115222;-73
2022/03/30 11:59:04;;;;;;;21.23;9.85;;;;;;;8.77;56.08;99433.61;739366;1155;113792;-76
2022/03/30 12:14:11;;;;;;;39.00;18.98;;;;;;;8.86;55.70;99434.55;739744;1155;115169;-75
2022/03/30 12:29:15;;;;;;;13.75;7.25;;;;;;;8.61;54.80;99444.69;739402;1154;114826;-75
2022/03/30 12:44:19;;;;;;;13.18;7.08;;;;;;;9.69;54.76;99444.09;739552;1155;114841;-76
2022/03/30 12:59:24;;;;;;;14.93;6.75;;;;;;;10.51;53.42;99450.95;739519;1154;115123;-75
2022/03/30 13:14:27;;;;;;;321.98;98.00;;;;;;;10.63;53.25;99449.70;739384;1155;114912;-76
2022/03/30 13:29:33;;;;;;;30.37;16.73;;;;;;;11.15;51.93;99449.59;739581;1155;115699;-75
2022/03/30 13:44:35;;;;;;;17.95;7.83;;;;;;;9.75;50.44;99435.64;740124;1155;115400;-73
2022/03/30 13:59:39;;;;;;;19.98;7.58;;;;;;;9.80;51.15;99443.03;739595;1155;114345;-73
2022/03/30 14:14:41;;;;;;;13.23;7.00;;;;;;;10.42;50.17;99440.39;739764;1154;114626;-76
2022/03/30 14:29:44;;;;;;;21.83;9.20;;;;;;;8.84;50.50;99444.31;739872;1154;114933;-73
2022/03/30 14:44:47;;;;;;;20.78;9.73;;;;;;;8.90;50.61;99443.75;740085;1154;115386;-73
2022/03/30 14:59:50;;;;;;;22.90;11.17;;;;;;;8.32;51.70;99460.42;739714;1155;115336;-75
2022/03/30 15:14:54;;;;;;;26.18;12.58;;;;;;;9.12;51.31;99447.77;740136;1155;114844;-72
2022/03/30 15:29:58;;;;;;;19.70;10.30;;;;;;;7.98;50.81;99450.43;739748;1154;115385;-72
2022/03/30 15:45:02;;;;;;;40.05;16.40;;;;;;;6.64;51.47;99445.52;739163;1155;115344;-72
2022/03/30 16:00:07;;;;;;;23.97;12.47;;;;;;;6.19;52.23;99458.86;739249;1155;114128;-71
2022/03/30 16:15:09;;;;;;;23.23;11.33;;;;;;;5.69;52.72;99459.41;739948;1154;115289;-77
2022/03/30 16:30:15;;;;;;;60.70;22.73;;;;;;;5.20;53.69;99468.51;739586;1154;115093;-73
2022/03/30 16:45:17;;;;;;;201.45;56.10;;;;;;;4.95;53.08;99476.46;739430;1153;115533;-73
2022/03/30 17:00:22;;;;;;;46.88;19.98;;;;;;;4.75;53.57;99490.15;739573;1155;115489;-73
2022/03/30 17:15:26;;;;;;;112.70;43.60;;;;;;;4.50;55.25;99492.84;740013;1155;114847;-76
2022/03/30 17:30:32;;;;;;;83.68;34.50;;;;;;;4.43;55.50;99507.22;739688;1154;114653;-77
2022/03/30 17:45:35;;;;;;;36.35;17.85;;;;;;;4.23;55.24;99515.69;740581;1155;115302;-74
2022/03/30 18:00:38;;;;;;;139.73;52.30;;;;;;;4.25;56.16;99521.58;739918;1154;114020;-73
2022/03/30 18:15:40;;;;;;;97.93;39.90;;;;;;;4.25;56.74;99524.17;740453;1155;114139;-76
2022/03/30 18:30:43;;;;;;;204.10;64.78;;;;;;;3.95;55.71;99528.09;740372;1154;115184;-75
2022/03/30 18:45:46;;;;;;;51.25;22.98;;;;;;;3.77;56.59;99538.83;740235;1154;115497;-76
2022/03/30 19:00:49;;;;;;;77.40;25.45;;;;;;;3.49;57.02;99539.98;739847;1154;115875;-73
2022/03/30 19:15:52;;;;;;;53.60;19.48;;;;;;;3.39;57.53;99546.73;739699;1155;114584;-73
2022/03/30 19:30:55;;;;;;;113.33;33.98;;;;;;;3.26;58.25;99550.20;739816;1155;115081;-73
2022/03/30 19:45:58;;;;;;;50.95;19.33;;;;;;;3.06;57.80;99550.73;739724;1154;115360;-71
2022/03/30 20:01:01;;;;;;;47.50;19.55;;;;;;;2.89;58.68;99560.50;739302;1155;115354;-72
2022/03/30 20:16:04;;;;;;;55.10;20.78;;;;;;;2.73;58.62;99571.06;740182;1154;115473;-72
2022/03/30 20:31:07;;;;;;;108.53;34.00;;;;;;;2.67;59.19;99574.05;739883;1155;115370;-73
2022/03/30 20:46:09;;;;;;;46.45;15.83;;;;;;;2.14;59.43;99564.52;740022;1155;115454;-73
2022/03/30 21:01:11;;;;;;;25.70;9.90;;;;;;;1.93;58.83;99573.66;739516;1155;115191;-71
2022/03/30 21:16:14;;;;;;;22.05;9.35;;;;;;;1.54;57.42;99564.88;739585;1155;115149;-73
2022/03/30 21:31:18;;;;;;;19.68;9.70;;;;;;;1.41;56.44;99577.72;739223;1154;113814;-71
2022/03/30 21:46:21;;;;;;;17.40;6.03;;;;;;;1.28;56.85;99581.06;741208;1155;114944;-74
2022/03/30 22:01:23;;;;;;;10.15;4.28;;;;;;;1.09;55.82;99563.23;738904;1154;115067;-72
2022/03/30 22:16:26;;;;;;;7.73;4.55;;;;;;;0.93;55.80;99559.92;739151;1154;115049;-72
2022/03/30 22:46:49;;;;;;;14.90;6.13;;;;;;;0.71;56.56;99560.36;739495;1155;114434;-74
2022/03/30 23:01:52;;;;;;;12.25;5.68;;;;;;;0.57;56.22;99563.73;740294;1155;115088;-71
2022/03/30 23:16:54;;;;;;;5.80;3.03;;;;;;;0.50;57.45;99552.93;739510;1153;115319;-71
2022/03/30 23:31:57;;;;;;;7.05;3.23;;;;;;;0.38;57.06;99567.38;738914;1153;115420;-73
2022/03/30 23:46:58;;;;;;;6.43;3.60;;;;;;;0.24;58.45;99568.17;739296;1155;114176;-72
